Latest Weather Observations for Low Isles

IDQ60801

Issued at 3:05 pm EST Tuesday 21 October 2014 (issued every 30 minutes, with the page automatically refreshed every 10 minutes)

About weather observations | Map of weather stations | Latest weather observations for QLD | Other Formats
Station Details ID: 031037 Name: LOW ISLES LIGHTHOUSE Lat: -16.38 Lon: 145.56 Height: 2.9 m
Data from the previous 72 hours. | See also: Recent months at Low Isles
Date/Time
EST
Temp
°C
App
Temp
°C
Dew
Point
Rel
Hum
%
Delta-T
°C
Wind Press
QNH
hPa
Press
MSL
hPa
Rain
since 9 am
mm
Dir
 
Spd
km/h
Gust
km/h
Spd
kts
Gust
kts
21/03:00pm 26.9 23.0 18.7 60 5.2 SE 37 44 20 24 1016.7 1016.6 0.0
21/02:30pm 28.4 25.5 20.1 60 5.4 ESE 35 44 19 24 1016.9 - 0.0
21/02:00pm 27.9 23.6 18.6 57 6.0 ESE 39 46 21 25 1017.1 - 0.0
21/01:30pm 27.7 24.2 19.5 61 5.3 ESE 37 44 20 24 1017.3 - 0.0
21/01:00pm 27.1 23.9 19.4 62 5.0 ESE 35 43 19 23 1017.7 - 0.0
21/12:30pm 27.4 24.0 18.9 59 5.5 ESE 35 46 19 25 1018.0 - 0.0
21/12:00pm 26.8 23.6 18.6 60 5.2 ESE 33 41 18 22 1018.5 1018.4 0.0
21/11:30am 26.1 23.2 19.2 65 4.4 ESE 33 43 18 23 1018.8 - 0.0
21/11:00am 28.3 26.2 19.0 57 6.0 SE 28 39 15 21 1019.0 - 0.0
21/10:30am 28.2 25.2 18.6 56 6.2 SE 32 37 17 20 1019.1 - 0.0
21/10:00am 27.7 24.5 17.2 52 6.6 ESE 30 37 16 20 1019.1 - 0.0
21/09:30am 27.6 24.0 17.2 53 6.5 ESE 32 39 17 21 1019.1 - 0.0
21/09:00am 27.1 24.1 17.8 56 5.9 ESE 30 37 16 20 1019.0 1018.9 3.0
21/08:30am 26.2 22.6 17.3 58 5.6 ESE 32 41 17 22 1018.8 - 3.0
21/08:00am 25.6 23.5 18.0 63 4.8 ESE 26 35 14 19 1018.6 - 3.0
21/07:30am 24.9 22.0 18.8 69 3.9 ESE 32 39 17 21 1018.2 - 3.0
21/07:00am 24.5 21.6 18.9 71 3.6 ESE 32 37 17 20 1017.7 - 3.0
21/06:30am 24.1 20.6 17.8 68 3.9 SE 33 39 18 21 1017.3 - 3.0
21/06:00am 23.8 20.7 18.4 72 3.4 SE 32 41 17 22 1017.1 1017.0 3.0
21/05:30am 23.7 21.0 18.4 72 3.3 SE 30 39 16 21 1016.9 - 3.0
21/05:00am 23.4 20.8 19.5 79 2.5 SSE 32 37 17 20 1016.6 - 3.0
21/04:30am 23.7 19.1 19.6 78 2.6 SSE 43 50 23 27 1016.6 - 3.0
21/04:21am 23.8 19.0 19.3 76 2.9 SSE 43 50 23 27 1016.7 - 3.0
21/04:00am 23.8 20.4 18.2 71 3.5 ESE 33 39 18 21 1016.6 - 3.0
21/03:30am 23.7 19.6 17.4 68 3.9 ESE 35 44 19 24 1016.5 - 3.0
21/03:00am 23.9 20.2 18.3 71 3.5 SE 35 43 19 23 1016.5 1016.4 3.0
21/02:30am 23.8 20.4 18.2 71 3.5 ESE 33 43 18 23 1016.4 - 3.0
21/02:00am 23.9 20.1 18.1 70 3.6 SE 35 44 19 24 1016.7 - 3.0
21/01:30am 23.8 18.4 17.8 69 3.7 SE 43 52 23 28 1016.9 - 3.0
21/01:00am 24.1 19.4 18.7 72 3.4 ESE 41 52 22 28 1017.4 - 3.0
21/12:30am 24.1 20.7 19.0 73 3.2 ESE 35 44 19 24 1017.9 - 3.0
21/12:00am 23.9 21.2 19.2 75 3.0 SE 32 44 17 24 1018.3 1018.2 3.0
 
Date/Time
EST
Temp
°C
App
Temp
°C
Dew
Point
Rel
Hum
%
Delta-T
°C
Wind Press
QNH
hPa
Press
MSL
hPa
Rain
since 9 am
mm
Dir
 
Spd
km/h
Gust
km/h
Spd
kts
Gust
kts
20/11:30pm 23.9 20.6 19.2 75 3.0 ESE 35 43 19 23 1018.4 - 3.0
20/11:00pm 23.9 20.9 19.8 78 2.6 SSE 35 41 19 22 1018.6 - 3.0
20/10:30pm 24.0 20.1 19.5 76 2.9 SSE 39 43 21 23 1018.6 - 3.0
20/10:28pm 24.2 20.6 20.1 78 2.7 SSE 39 43 21 23 1018.6 - 3.0
20/10:00pm 24.6 20.8 19.0 71 3.6 SE 37 44 20 24 1018.7 - 3.0
20/09:30pm 24.6 21.3 19.2 72 3.5 ESE 35 44 19 24 1018.6 - 3.0
20/09:00pm 24.6 21.8 19.4 73 3.3 ESE 33 43 18 23 1018.4 1018.3 3.0
20/08:30pm 24.7 21.9 19.5 73 3.3 SE 33 43 18 23 1018.2 - 3.0
20/08:00pm 24.6 20.4 18.8 70 3.7 SE 39 44 21 24 1017.9 - 3.0
20/07:30pm 24.6 20.8 19.0 71 3.6 SE 37 46 20 25 1017.8 - 3.0
20/07:00pm 24.7 20.7 18.6 69 3.9 SE 37 46 20 25 1017.5 - 3.0
20/06:30pm 24.7 21.3 18.9 70 3.7 SE 35 43 19 23 1017.1 - 3.0
20/06:00pm 24.9 20.7 18.8 69 3.9 ESE 39 46 21 25 1016.9 1016.8 3.0
20/05:30pm 25.2 21.5 19.1 69 3.9 ESE 37 46 20 25 1016.5 - 3.0
20/05:00pm 25.7 23.1 19.8 70 3.8 SE 33 44 18 24 1016.1 - 3.0
20/04:30pm 26.0 22.0 19.4 67 4.3 ESE 39 48 21 26 1016.0 - 3.0
20/04:00pm 26.2 22.1 19.1 65 4.6 SE 39 50 21 27 1015.9 - 3.0
20/03:30pm 26.7 22.2 19.1 63 4.9 SE 41 52 22 28 1016.1 - 3.0
20/03:00pm 26.9 22.8 20.0 66 4.5 SE 41 46 22 25 1016.3 1016.2 3.0
20/02:30pm 26.4 22.3 20.0 68 4.2 SE 41 48 22 26 1016.5 - 3.0
20/02:00pm 25.6 20.9 19.9 70 3.7 SE 44 54 24 29 1016.7 - 3.0
20/01:30pm 25.4 20.7 19.8 71 3.6 SE 44 54 24 29 1017.0 - 3.0
20/01:00pm 26.1 22.1 20.2 70 3.8 SE 41 50 22 27 1017.3 - 3.0
20/12:30pm 27.5 23.7 20.6 66 4.5 ESE 41 50 22 27 1017.8 - 3.0
20/12:00pm 26.7 23.0 20.8 70 3.9 ESE 41 50 22 27 1018.2 1018.1 3.0
20/11:30am 25.2 21.9 20.0 73 3.4 ESE 37 46 20 25 1018.6 - 3.0
20/11:00am 24.4 21.0 20.7 80 2.4 ESE 39 46 21 25 1018.8 - 3.0
20/10:30am 23.3 20.3 20.6 85 1.8 E 37 50 20 27 1018.9 - 3.0
20/10:00am 23.2 19.9 20.9 87 1.5 ESE 39 54 21 29 1019.3 - 2.4
20/09:30am 26.9 23.9 21.4 72 3.7 ESE 39 54 21 29 1019.3 - 0.0
20/09:00am 24.9 21.1 20.6 77 2.8 ESE 41 48 22 26 1019.2 1019.1 1.4
20/08:30am 25.7 22.5 20.3 72 3.5 ESE 37 46 20 25 1019.0 - 1.4
20/08:00am 25.0 22.5 20.9 78 2.7 ESE 35 43 19 23 1018.6 - 1.4
20/07:30am 24.7 22.3 20.4 77 2.8 ESE 33 43 18 23 1018.5 - 1.4
20/07:00am 24.7 21.7 19.8 74 3.2 ESE 35 44 19 24 1018.0 - 1.2
20/06:30am 24.8 21.0 19.8 74 3.2 ESE 39 48 21 26 1017.5 - 1.2
20/06:00am 24.3 21.2 19.6 75 3.0 ESE 35 44 19 24 1017.2 1017.1 1.2
20/05:30am 24.2 20.7 19.7 76 2.9 E 37 48 20 26 1016.9 - 1.2
20/05:00am 24.6 22.3 20.1 76 2.9 E 32 41 17 22 1016.8 - 1.2
20/04:30am 24.2 21.1 19.7 76 2.9 E 35 46 19 25 1016.7 - 1.2
20/04:00am 24.2 21.6 19.5 75 3.0 ESE 32 43 17 23 1016.5 - 1.2
20/03:30am 24.3 21.7 19.4 74 3.1 ESE 32 39 17 21 1016.6 - 1.2
20/03:00am 24.2 21.7 19.7 76 2.9 ESE 32 41 17 22 1016.7 1016.6 1.2
20/02:30am 24.3 21.2 19.6 75 3.0 ESE 35 43 19 23 1016.7 - 1.2
20/02:00am 24.2 20.6 19.3 74 3.1 ESE 37 46 20 25 1016.9 - 1.2
20/01:30am 24.3 20.7 19.4 74 3.1 ESE 37 48 20 26 1017.2 - 1.2
20/01:00am 24.2 20.7 19.5 75 3.0 ESE 37 46 20 25 1017.7 - 1.2
20/12:30am 24.2 20.3 19.5 75 3.0 ESE 39 50 21 27 1018.0 - 1.2
20/12:05am 23.5 20.1 19.8 80 2.4 ESE 37 56 20 30 1018.4 - 1.2
20/12:00am 23.3 19.2 19.2 78 2.6 E 39 56 21 30 1018.5 1018.4 1.2
 
Date/Time
EST
Temp
°C
App
Temp
°C
Dew
Point
Rel
Hum
%
Delta-T
°C
Wind Press
QNH
hPa
Press
MSL
hPa
Rain
since 9 am
mm
Dir
 
Spd
km/h
Gust
km/h
Spd
kts
Gust
kts
19/11:56pm 24.3 20.9 19.8 76 2.9 ESE 37 56 20 30 1018.5 - 1.2
19/11:30pm 23.9 21.2 20.4 81 2.3 ESE 35 46 19 25 1018.8 - 1.2
19/11:00pm 24.8 22.2 20.7 78 2.7 SE 35 46 19 25 1019.1 - 1.2
19/10:30pm 24.6 20.6 19.4 73 3.3 SE 39 48 21 26 1019.2 - 1.2
19/10:00pm 25.0 21.3 20.0 74 3.2 ESE 39 46 21 25 1019.3 - 1.2
19/09:30pm 24.9 21.4 19.5 72 3.5 SE 37 46 20 25 1019.2 - 1.2
19/09:00pm 24.7 20.7 20.2 76 2.9 SE 41 50 22 27 1018.9 1018.8 1.2
19/08:30pm 24.9 21.3 19.3 71 3.6 ESE 37 44 20 24 1018.6 - 1.2
19/08:00pm 25.0 21.2 19.8 73 3.4 ESE 39 52 21 28 1018.3 - 1.2
19/07:30pm 24.9 20.8 19.9 74 3.2 ESE 41 52 22 28 1018.0 - 1.2
19/07:00pm 24.9 20.0 19.0 69 3.8 SE 43 52 23 28 1017.8 - 1.2
19/06:30pm 25.1 20.2 19.5 71 3.6 SE 44 52 24 28 1017.5 - 1.2
19/06:00pm 25.0 19.4 18.7 68 4.0 SE 46 56 25 30 1017.3 1017.2 1.2
19/05:30pm 25.4 20.0 19.3 69 3.9 SE 46 56 25 30 1017.1 - 1.2
19/05:00pm 25.8 20.1 18.5 64 4.6 SE 46 57 25 31 1016.8 - 1.2
19/04:30pm 25.9 20.8 19.1 66 4.4 SE 44 56 24 30 1016.4 - 1.2
19/04:00pm 26.2 21.3 19.1 65 4.6 SE 43 54 23 29 1016.2 - 1.2
19/03:30pm 26.7 21.8 19.1 63 4.9 SE 43 54 23 29 1016.2 - 1.2
19/03:00pm 27.3 22.7 19.6 62 5.0 ESE 43 54 23 29 1016.3 1016.2 1.2
19/02:30pm 27.3 23.8 21.1 69 4.1 SE 41 48 22 26 1016.5 - 1.2
19/02:00pm 27.8 23.6 20.6 65 4.7 SE 43 54 23 29 1016.6 - 1.2
19/01:30pm 27.4 23.3 20.0 64 4.8 SE 41 50 22 27 1016.9 - 1.2
19/01:00pm 27.7 23.6 20.0 63 5.0 SE 41 52 22 28 1017.4 - 1.2
19/12:30pm 27.6 24.2 20.7 66 4.6 SE 39 50 21 27 1017.8 - 1.2
19/12:00pm 27.2 23.3 20.3 66 4.5 SE 41 48 22 26 1018.2 1018.1 1.2
19/11:30am 26.9 23.0 20.3 67 4.3 SE 41 50 22 27 1018.6 - 1.2
19/11:08am 25.8 24.6 20.8 74 3.3 ESE 28 48 15 26 1018.8 - 1.2
19/11:00am 25.5 25.9 21.8 80 2.5 ESE 22 30 12 16 1018.9 - 1.2
19/10:30am 23.4 21.2 20.7 85 1.8 E 33 43 18 23 1019.2 - 1.2
19/10:00am 23.4 20.1 20.0 81 2.2 E 37 50 20 27 1019.4 - 0.6
19/09:30am 26.2 23.9 20.1 69 4.0 E 32 41 17 22 1019.5 - 0.0
19/09:24am 26.0 23.0 19.9 69 4.0 E 35 41 19 22 1019.4 - 0.0
19/09:00am 26.2 22.1 19.1 65 4.5 SE 39 48 21 26 1019.4 1019.3 0.0
19/08:30am 26.4 22.5 19.5 66 4.5 SE 39 46 21 25 1019.2 - 0.0
19/08:00am 24.9 21.7 19.5 72 3.5 SE 35 43 19 23 1019.1 - 0.0
19/07:30am 25.0 21.6 19.1 70 3.8 SE 35 41 19 22 1018.8 - 0.0
19/07:00am 24.9 21.9 19.9 74 3.2 SE 35 43 19 23 1018.3 - 0.0
19/06:30am 24.6 21.3 19.2 72 3.5 SE 35 44 19 24 1018.0 - 0.0
19/06:00am 24.4 21.0 19.0 72 3.4 SE 35 43 19 23 1017.7 1017.6 0.0
19/05:30am 24.1 20.7 19.0 73 3.2 SE 35 43 19 23 1017.7 - 0.0
19/05:00am 24.0 20.0 18.4 71 3.5 SE 37 46 20 25 1017.5 - 0.0
19/04:30am 24.1 20.0 19.2 74 3.1 SE 39 46 21 25 1017.2 - 0.0
19/04:00am 24.3 20.5 18.9 72 3.4 SE 37 44 20 24 1016.9 - 0.0
19/03:30am 24.2 20.2 18.6 71 3.5 SE 37 43 20 23 1016.9 - 0.0
19/03:00am 24.3 20.0 18.7 71 3.5 SE 39 46 21 25 1016.9 1016.8 0.0
19/02:30am 24.1 20.6 18.7 72 3.4 SE 35 43 19 23 1017.2 - 0.0
19/02:00am 24.1 20.1 18.5 71 3.5 SE 37 44 20 24 1017.5 - 0.0
19/01:30am 24.1 20.2 18.7 72 3.4 SE 37 44 20 24 1017.8 - 0.0
19/01:00am 24.3 20.9 19.1 73 3.3 SE 35 43 19 23 1018.1 - 0.0
19/12:30am 24.2 19.9 18.6 71 3.5 SE 39 46 21 25 1018.5 - 0.0
19/12:00am 24.5 20.2 18.7 70 3.7 ESE 39 48 21 26 1018.8 1018.7 0.0
 
Date/Time
EST
Temp
°C
App
Temp
°C
Dew
Point
Rel
Hum
%
Delta-T
°C
Wind Press
QNH
hPa
Press
MSL
hPa
Rain
since 9 am
mm
Dir
 
Spd
km/h
Gust
km/h
Spd
kts
Gust
kts
18/11:30pm 24.7 21.2 19.5 73 3.3 SE 37 46 20 25 1019.1 - 0.0
18/11:00pm 24.7 21.1 19.3 72 3.5 SE 37 46 20 25 1019.4 - 0.0
18/10:30pm 24.8 21.0 19.0 70 3.7 SE 37 44 20 24 1019.5 - 0.0
18/10:00pm 24.7 21.0 18.4 68 4.0 SE 35 46 19 25 1019.4 - 0.0
18/09:30pm 24.8 20.6 18.0 66 4.3 SE 37 48 20 26 1019.5 - 0.0
18/09:00pm 24.9 20.3 18.1 66 4.3 SE 39 48 21 26 1019.2 1019.1 0.0
18/08:30pm 24.9 19.8 18.6 68 4.0 SE 43 50 23 27 1018.9 - 0.0
18/08:00pm 25.0 19.6 19.1 70 3.8 SE 46 54 25 29 1018.6 - 0.0
18/07:30pm 25.1 20.0 19.0 69 3.9 SE 44 59 24 32 1018.3 - 0.0
18/07:00pm 25.1 20.0 18.5 67 4.2 SE 43 50 23 27 1018.1 - 0.0
18/06:30pm 25.4 21.3 20.0 72 3.5 SE 41 52 22 28 1017.7 - 0.0
18/06:00pm 25.4 20.9 19.1 68 4.0 SE 41 46 22 25 1017.3 1017.2 0.0
18/05:30pm 25.9 21.6 18.6 64 4.6 SE 39 48 21 26 1016.8 - 0.0
18/05:00pm 26.3 22.4 18.7 63 4.9 ESE 37 46 20 25 1016.4 - 0.0
18/04:30pm 26.6 21.7 18.2 60 5.3 SE 41 48 22 26 1016.2 - 0.0
18/04:00pm 27.0 22.5 18.3 59 5.5 ESE 39 48 21 26 1016.0 - 0.0
18/03:30pm 27.6 23.3 17.7 54 6.3 ESE 37 48 20 26 1015.9 - 0.0

Other Formats:

Comma delimited format used in spreadsheet applications
http://www.bom.gov.au/fwo/IDQ60801/IDQ60801.94285.axf

JavaScript Object Notation format (JSON) in row-major order
http://www.bom.gov.au/fwo/IDQ60801/IDQ60801.94285.json